sensor_id;sensor_type;location;lat;lon;timestamp;pressure;altitude;pressure_sealevel;temperature;humidity
54994;BME280;40891;47.242;8.648;2022-09-09T00:00:15;96097.25;;;17.30;83.86
54994;BME280;40891;47.242;8.648;2022-09-09T00:02:47;96103.63;;;17.25;83.75
54994;BME280;40891;47.242;8.648;2022-09-09T00:05:28;96098.78;;;17.26;84.08
54994;BME280;40891;47.242;8.648;2022-09-09T00:07:59;96093.97;;;17.32;83.51
54994;BME280;40891;47.242;8.648;2022-09-09T00:10:29;96093.72;;;17.35;84.42
54994;BME280;40891;47.242;8.648;2022-09-09T00:13:18;96096.63;;;17.52;83.38
54994;BME280;40891;47.242;8.648;2022-09-09T00:20:56;96094.97;;;17.29;83.83
54994;BME280;40891;47.242;8.648;2022-09-09T00:23:55;96102.31;;;17.15;84.81
54994;BME280;40891;47.242;8.648;2022-09-09T00:28:54;96104.56;;;17.06;85.27
54994;BME280;40891;47.242;8.648;2022-09-09T00:31:26;96098.16;;;17.05;85.66
54994;BME280;40891;47.242;8.648;2022-09-09T00:33:53;96101.75;;;17.11;85.40
54994;BME280;40891;47.242;8.648;2022-09-09T00:36:23;96090.53;;;17.11;84.88
54994;BME280;40891;47.242;8.648;2022-09-09T00:38:58;96088.75;;;17.14;85.15
54994;BME280;40891;47.242;8.648;2022-09-09T00:44:25;96088.19;;;16.98;85.05
54994;BME280;40891;47.242;8.648;2022-09-09T00:46:59;96087.13;;;16.96;85.77
54994;BME280;40891;47.242;8.648;2022-09-09T00:52:32;96102.66;;;16.86;84.73
54994;BME280;40891;47.242;8.648;2022-09-09T00:57:35;96102.38;;;16.84;84.32
54994;BME280;40891;47.242;8.648;2022-09-09T01:00:31;96095.47;;;16.79;83.85
54994;BME280;40891;47.242;8.648;2022-09-09T01:05:54;96093.38;;;16.74;83.68
54994;BME280;40891;47.242;8.648;2022-09-09T01:11:27;96096.66;;;16.67;84.03
54994;BME280;40891;47.242;8.648;2022-09-09T01:14:13;96096.88;;;16.64;84.13
54994;BME280;40891;47.242;8.648;2022-09-09T01:16:39;96086.66;;;16.61;84.26
54994;BME280;40891;47.242;8.648;2022-09-09T01:19:07;96089.19;;;16.59;84.55
54994;BME280;40891;47.242;8.648;2022-09-09T01:24:26;96096.25;;;16.49;86.02
54994;BME280;40891;47.242;8.648;2022-09-09T01:26:56;96086.81;;;16.52;86.11
54994;BME280;40891;47.242;8.648;2022-09-09T01:29:24;96086.00;;;16.46;86.11
54994;BME280;40891;47.242;8.648;2022-09-09T01:34:18;96087.31;;;16.50;86.54
54994;BME280;40891;47.242;8.648;2022-09-09T01:37:02;96086.28;;;16.48;86.36
54994;BME280;40891;47.242;8.648;2022-09-09T01:39:29;96082.16;;;16.43;85.89
54994;BME280;40891;47.242;8.648;2022-09-09T01:41:56;96089.31;;;16.44;85.95
54994;BME280;40891;47.242;8.648;2022-09-09T01:44:22;96093.88;;;16.42;86.03
54994;BME280;40891;47.242;8.648;2022-09-09T01:46:47;96084.44;;;16.39;86.40
54994;BME280;40891;47.242;8.648;2022-09-09T01:49:13;96093.13;;;16.41;86.53
54994;BME280;40891;47.242;8.648;2022-09-09T01:51:40;96090.53;;;16.38;86.91
54994;BME280;40891;47.242;8.648;2022-09-09T01:54:06;96088.00;;;16.40;87.30
54994;BME280;40891;47.242;8.648;2022-09-09T01:57:01;96103.03;;;16.37;86.28
54994;BME280;40891;47.242;8.648;2022-09-09T02:04:45;96103.28;;;16.39;85.02
54994;BME280;40891;47.242;8.648;2022-09-09T02:07:38;96109.13;;;16.35;85.71
54994;BME280;40891;47.242;8.648;2022-09-09T02:12:43;96114.16;;;16.51;84.93
54994;BME280;40891;47.242;8.648;2022-09-09T02:15:52;96117.25;;;16.59;85.38
54994;BME280;40891;47.242;8.648;2022-09-09T02:18:08;96111.09;;;16.55;85.84
54994;BME280;40891;47.242;8.648;2022-09-09T02:20:38;96119.53;;;16.55;85.41
54994;BME280;40891;47.242;8.648;2022-09-09T02:23:06;96115.78;;;16.63;85.44
54994;BME280;40891;47.242;8.648;2022-09-09T02:25:35;96118.28;;;16.56;85.82
54994;BME280;40891;47.242;8.648;2022-09-09T02:28:04;96115.38;;;16.50;86.70
54994;BME280;40891;47.242;8.648;2022-09-09T02:30:33;96121.06;;;16.56;86.82
54994;BME280;40891;47.242;8.648;2022-09-09T02:33:01;96120.34;;;16.61;87.23
54994;BME280;40891;47.242;8.648;2022-09-09T02:35:30;96126.03;;;16.72;86.40
54994;BME280;40891;47.242;8.648;2022-09-09T02:37:59;96125.06;;;16.80;87.58
54994;BME280;40891;47.242;8.648;2022-09-09T02:40:26;96132.50;;;16.83;87.26
54994;BME280;40891;47.242;8.648;2022-09-09T02:42:54;96137.66;;;16.90;87.06
54994;BME280;40891;47.242;8.648;2022-09-09T02:45:24;96141.03;;;17.00;86.02
54994;BME280;40891;47.242;8.648;2022-09-09T02:50:31;96144.03;;;17.33;84.59
54994;BME280;40891;47.242;8.648;2022-09-09T02:58:00;96152.22;;;17.37;85.81
54994;BME280;40891;47.242;8.648;2022-09-09T03:00:28;96155.28;;;17.33;85.66
54994;BME280;40891;47.242;8.648;2022-09-09T03:02:54;96151.94;;;17.35;86.43
54994;BME280;40891;47.242;8.648;2022-09-09T03:05:20;96153.75;;;17.38;85.92
54994;BME280;40891;47.242;8.648;2022-09-09T03:07:46;96159.66;;;17.40;85.36
54994;BME280;40891;47.242;8.648;2022-09-09T03:10:11;96150.44;;;17.39;85.77
54994;BME280;40891;47.242;8.648;2022-09-09T03:12:36;96160.91;;;17.33;87.46
54994;BME280;40891;47.242;8.648;2022-09-09T03:15:02;96160.38;;;17.35;87.32
54994;BME280;40891;47.242;8.648;2022-09-09T03:17:27;96151.50;;;17.47;85.86
54994;BME280;40891;47.242;8.648;2022-09-09T03:19:53;96152.84;;;17.52;87.70
54994;BME280;40891;47.242;8.648;2022-09-09T03:22:19;96155.69;;;17.57;85.90
54994;BME280;40891;47.242;8.648;2022-09-09T03:24:45;96155.22;;;17.64;85.48
54994;BME280;40891;47.242;8.648;2022-09-09T03:27:12;96155.16;;;17.59;84.42
54994;BME280;40891;47.242;8.648;2022-09-09T03:29:39;96153.34;;;17.56;83.66
54994;BME280;40891;47.242;8.648;2022-09-09T03:32:05;96161.31;;;17.57;83.10
54994;BME280;40891;47.242;8.648;2022-09-09T03:34:30;96160.53;;;17.57;81.60
54994;BME280;40891;47.242;8.648;2022-09-09T03:36:56;96159.50;;;17.54;83.67
54994;BME280;40891;47.242;8.648;2022-09-09T03:39:21;96159.28;;;17.63;83.57
54994;BME280;40891;47.242;8.648;2022-09-09T03:41:47;96156.94;;;17.56;83.64
54994;BME280;40891;47.242;8.648;2022-09-09T03:44:13;96163.88;;;17.55;84.06
54994;BME280;40891;47.242;8.648;2022-09-09T03:46:39;96160.28;;;17.55;84.81
54994;BME280;40891;47.242;8.648;2022-09-09T03:49:04;96149.28;;;17.57;85.10
54994;BME280;40891;47.242;8.648;2022-09-09T03:51:30;96152.63;;;17.55;83.91
54994;BME280;40891;47.242;8.648;2022-09-09T03:53:55;96143.88;;;17.53;84.68
54994;BME280;40891;47.242;8.648;2022-09-09T03:56:22;96152.78;;;17.46;85.33
54994;BME280;40891;47.242;8.648;2022-09-09T03:58:47;96143.84;;;17.48;84.97
54994;BME280;40891;47.242;8.648;2022-09-09T04:01:13;96149.50;;;17.53;86.70
54994;BME280;40891;47.242;8.648;2022-09-09T04:03:40;96141.06;;;17.53;86.33
54994;BME280;40891;47.242;8.648;2022-09-09T04:06:06;96140.00;;;17.51;84.70
54994;BME280;40891;47.242;8.648;2022-09-09T04:08:33;96145.84;;;17.42;86.24
54994;BME280;40891;47.242;8.648;2022-09-09T04:10:59;96147.63;;;17.39;85.82
54994;BME280;40891;47.242;8.648;2022-09-09T04:13:27;96148.16;;;17.38;86.38
54994;BME280;40891;47.242;8.648;2022-09-09T04:15:53;96152.03;;;17.46;86.45
54994;BME280;40891;47.242;8.648;2022-09-09T04:18:20;96154.56;;;17.44;83.65
54994;BME280;40891;47.242;8.648;2022-09-09T04:20:47;96156.56;;;17.38;83.04
54994;BME280;40891;47.242;8.648;2022-09-09T04:23:13;96159.88;;;17.31;83.86
54994;BME280;40891;47.242;8.648;2022-09-09T04:25:43;96159.56;;;17.23;84.18
54994;BME280;40891;47.242;8.648;2022-09-09T04:28:09;96162.38;;;17.23;85.38
54994;BME280;40891;47.242;8.648;2022-09-09T04:30:35;96160.50;;;17.09;86.63
54994;BME280;40891;47.242;8.648;2022-09-09T04:33:00;96166.56;;;17.02;87.16
54994;BME280;40891;47.242;8.648;2022-09-09T04:35:26;96160.66;;;16.94;88.25
54994;BME280;40891;47.242;8.648;2022-09-09T04:37:52;96157.81;;;16.89;89.30
54994;BME280;40891;47.242;8.648;2022-09-09T04:40:17;96154.75;;;16.87;89.87
54994;BME280;40891;47.242;8.648;2022-09-09T04:42:42;96156.31;;;16.93;87.48
54994;BME280;40891;47.242;8.648;2022-09-09T04:45:09;96156.22;;;16.82;89.86
54994;BME280;40891;47.242;8.648;2022-09-09T04:47:36;96160.25;;;16.76;91.08
54994;BME280;40891;47.242;8.648;2022-09-09T04:50:01;96152.03;;;16.67;91.97
54994;BME280;40891;47.242;8.648;2022-09-09T04:52:27;96155.63;;;16.73;94.02
54994;BME280;40891;47.242;8.648;2022-09-09T04:54:53;96157.38;;;16.65;96.56
54994;BME280;40891;47.242;8.648;2022-09-09T04:57:19;96155.03;;;16.58;97.81
54994;BME280;40891;47.242;8.648;2022-09-09T04:59:44;96157.28;;;16.54;98.56
54994;BME280;40891;47.242;8.648;2022-09-09T05:02:10;96159.00;;;16.77;96.41
54994;BME280;40891;47.242;8.648;2022-09-09T05:04:36;96157.06;;;16.57;97.52
54994;BME280;40891;47.242;8.648;2022-09-09T05:07:01;96161.63;;;16.55;99.28
54994;BME280;40891;47.242;8.648;2022-09-09T05:09:27;96166.25;;;16.58;100.00
54994;BME280;40891;47.242;8.648;2022-09-09T05:11:52;96159.09;;;16.57;100.00
54994;BME280;40891;47.242;8.648;2022-09-09T05:14:17;96152.47;;;16.60;100.00
54994;BME280;40891;47.242;8.648;2022-09-09T05:16:44;96158.81;;;16.55;99.28
54994;BME280;40891;47.242;8.648;2022-09-09T05:19:10;96165.72;;;16.54;99.50
54994;BME280;40891;47.242;8.648;2022-09-09T05:21:35;96159.50;;;16.50;100.00
54994;BME280;40891;47.242;8.648;2022-09-09T05:24:00;96162.63;;;16.52;100.00
54994;BME280;40891;47.242;8.648;2022-09-09T05:26:26;96165.63;;;16.48;100.00
54994;BME280;40891;47.242;8.648;2022-09-09T05:28:52;96170.19;;;16.46;100.00
54994;BME280;40891;47.242;8.648;2022-09-09T05:31:18;96170.72;;;16.44;100.00
54994;BME280;40891;47.242;8.648;2022-09-09T05:33:45;96172.47;;;16.42;100.00
54994;BME280;40891;47.242;8.648;2022-09-09T05:36:14;96173.97;;;16.37;100.00
54994;BME280;40891;47.242;8.648;2022-09-09T05:38:40;96170.59;;;16.33;100.00
54994;BME280;40891;47.242;8.648;2022-09-09T05:41:06;96171.44;;;16.45;100.00
54994;BME280;40891;47.242;8.648;2022-09-09T05:43:32;96184.31;;;16.25;100.00
54994;BME280;40891;47.242;8.648;2022-09-09T05:46:09;96179.84;;;16.13;100.00
54994;BME280;40891;47.242;8.648;2022-09-09T05:48:45;96173.19;;;16.11;100.00
54994;BME280;40891;47.242;8.648;2022-09-09T05:51:18;96186.72;;;16.12;100.00
54994;BME280;40891;47.242;8.648;2022-09-09T05:53:46;96180.66;;;16.19;100.00
54994;BME280;40891;47.242;8.648;2022-09-09T05:56:17;96186.53;;;16.21;100.00
54994;BME280;40891;47.242;8.648;2022-09-09T05:58:43;96191.16;;;16.24;100.00
54994;BME280;40891;47.242;8.648;2022-09-09T06:01:11;96187.94;;;16.31;100.00
54994;BME280;40891;47.242;8.648;2022-09-09T06:03:38;96184.59;;;16.27;100.00
54994;BME280;40891;47.242;8.648;2022-09-09T06:06:06;96191.00;;;16.33;100.00
54994;BME280;40891;47.242;8.648;2022-09-09T06:08:37;96183.97;;;16.44;100.00
54994;BME280;40891;47.242;8.648;2022-09-09T06:11:14;96188.84;;;16.49;100.00
54994;BME280;40891;47.242;8.648;2022-09-09T06:13:41;96193.50;;;16.52;100.00
54994;BME280;40891;47.242;8.648;2022-09-09T06:16:11;96189.94;;;16.51;100.00
54994;BME280;40891;47.242;8.648;2022-09-09T06:18:38;96194.59;;;16.60;100.00
54994;BME280;40891;47.242;8.648;2022-09-09T06:21:05;96192.56;;;16.60;100.00
54994;BME280;40891;47.242;8.648;2022-09-09T06:23:32;96180.81;;;16.56;100.00
54994;BME280;40891;47.242;8.648;2022-09-09T06:26:13;96183.59;;;16.56;100.00
54994;BME280;40891;47.242;8.648;2022-09-09T06:28:39;96182.09;;;16.61;100.00
54994;BME280;40891;47.242;8.648;2022-09-09T06:31:07;96170.19;;;16.71;100.00
54994;BME280;40891;47.242;8.648;2022-09-09T06:33:34;96176.38;;;16.81;100.00
54994;BME280;40891;47.242;8.648;2022-09-09T06:36:01;96167.56;;;16.99;99.80
54994;BME280;40891;47.242;8.648;2022-09-09T06:38:27;96172.47;;;17.04;99.50
54994;BME280;40891;47.242;8.648;2022-09-09T06:40:57;96164.03;;;17.04;99.35
54994;BME280;40891;47.242;8.648;2022-09-09T06:43:24;96167.09;;;17.06;100.00
54994;BME280;40891;47.242;8.648;2022-09-09T06:48:24;96166.47;;;17.28;100.00
54994;BME280;40891;47.242;8.648;2022-09-09T06:51:00;96165.00;;;17.38;97.58
54994;BME280;40891;47.242;8.648;2022-09-09T06:53:26;96164.31;;;17.48;95.64
54994;BME280;40891;47.242;8.648;2022-09-09T06:55:52;96167.16;;;17.54;96.03
54994;BME280;40891;47.242;8.648;2022-09-09T06:58:17;96169.28;;;17.70;97.95
54994;BME280;40891;47.242;8.648;2022-09-09T07:00:43;96168.03;;;17.77;94.26
54994;BME280;40891;47.242;8.648;2022-09-09T07:03:10;96177.22;;;17.72;95.28
54994;BME280;40891;47.242;8.648;2022-09-09T07:05:35;96171.38;;;17.81;95.31
54994;BME280;40891;47.242;8.648;2022-09-09T07:08:00;96171.91;;;17.90;93.83
54994;BME280;40891;47.242;8.648;2022-09-09T07:10:27;96169.66;;;18.11;91.77
54994;BME280;40891;47.242;8.648;2022-09-09T07:12:52;96172.78;;;18.24;90.90
54994;BME280;40891;47.242;8.648;2022-09-09T07:15:18;96174.09;;;18.45;86.73
54994;BME280;40891;47.242;8.648;2022-09-09T07:17:48;96176.44;;;18.74;86.15
54994;BME280;40891;47.242;8.648;2022-09-09T07:20:14;96174.66;;;18.82;87.02
54994;BME280;40891;47.242;8.648;2022-09-09T07:22:40;96166.94;;;18.94;85.12
54994;BME280;40891;47.242;8.648;2022-09-09T07:25:05;96169.78;;;18.99;87.20
54994;BME280;40891;47.242;8.648;2022-09-09T07:27:31;96177.47;;;18.99;90.21
54994;BME280;40891;47.242;8.648;2022-09-09T07:29:56;96171.03;;;19.10;86.84
54994;BME280;40891;47.242;8.648;2022-09-09T07:32:22;96176.44;;;18.85;87.17
54994;BME280;40891;47.242;8.648;2022-09-09T07:34:47;96184.91;;;18.69;89.84
54994;BME280;40891;47.242;8.648;2022-09-09T07:37:13;96175.41;;;18.55;90.57
54994;BME280;40891;47.242;8.648;2022-09-09T07:39:39;96178.72;;;18.54;90.76
54994;BME280;40891;47.242;8.648;2022-09-09T07:42:05;96188.72;;;18.60;91.16
54994;BME280;40891;47.242;8.648;2022-09-09T07:44:30;96189.25;;;18.86;91.94
54994;BME280;40891;47.242;8.648;2022-09-09T07:46:57;96183.06;;;19.16;88.45
54994;BME280;40891;47.242;8.648;2022-09-09T07:49:22;96173.03;;;19.48;87.40
54994;BME280;40891;47.242;8.648;2022-09-09T07:51:49;96181.19;;;19.62;84.01
54994;BME280;40891;47.242;8.648;2022-09-09T07:54:17;96182.94;;;19.71;83.93
54994;BME280;40891;47.242;8.648;2022-09-09T07:56:45;96178.53;;;19.92;83.40
54994;BME280;40891;47.242;8.648;2022-09-09T07:59:12;96175.16;;;19.99;84.36
54994;BME280;40891;47.242;8.648;2022-09-09T08:01:49;96178.94;;;20.13;77.51
54994;BME280;40891;47.242;8.648;2022-09-09T08:04:20;96172.94;;;20.33;82.62
54994;BME280;40891;47.242;8.648;2022-09-09T08:06:57;96171.78;;;20.53;78.61
54994;BME280;40891;47.242;8.648;2022-09-09T08:09:24;96177.53;;;20.42;77.88
54994;BME280;40891;47.242;8.648;2022-09-09T08:11:52;96178.41;;;20.14;78.97
54994;BME280;40891;47.242;8.648;2022-09-09T08:14:18;96174.72;;;19.79;79.75
54994;BME280;40891;47.242;8.648;2022-09-09T08:16:46;96183.44;;;19.81;81.94
54994;BME280;40891;47.242;8.648;2022-09-09T08:19:12;96189.00;;;20.03;83.17
54994;BME280;40891;47.242;8.648;2022-09-09T08:21:41;96195.19;;;19.90;81.17
54994;BME280;40891;47.242;8.648;2022-09-09T08:24:07;96199.56;;;19.91;77.96
54994;BME280;40891;47.242;8.648;2022-09-09T08:26:36;96195.56;;;20.27;78.96
54994;BME280;40891;47.242;8.648;2022-09-09T08:29:03;96190.97;;;20.24;76.05
54994;BME280;40891;47.242;8.648;2022-09-09T08:31:32;96196.69;;;20.54;77.42
54994;BME280;40891;47.242;8.648;2022-09-09T08:33:59;96193.41;;;20.45;76.65
54994;BME280;40891;47.242;8.648;2022-09-09T08:36:27;96195.50;;;20.39;77.65
54994;BME280;40891;47.242;8.648;2022-09-09T08:38:54;96185.31;;;20.65;78.59
54994;BME280;40891;47.242;8.648;2022-09-09T08:41:44;96191.31;;;20.86;78.50
54994;BME280;40891;47.242;8.648;2022-09-09T08:49:30;96181.84;;;21.67;68.69
54994;BME280;40891;47.242;8.648;2022-09-09T08:52:01;96179.38;;;22.01;68.42
54994;BME280;40891;47.242;8.648;2022-09-09T08:54:33;96185.59;;;22.55;70.29
54994;BME280;40891;47.242;8.648;2022-09-09T08:56:59;96179.06;;;22.97;68.17
54994;BME280;40891;47.242;8.648;2022-09-09T08:59:25;96182.00;;;23.50;68.47
54994;BME280;40891;47.242;8.648;2022-09-09T09:04:44;96177.47;;;24.12;54.97
54994;BME280;40891;47.242;8.648;2022-09-09T09:07:28;96174.81;;;24.14;56.54
54994;BME280;40891;47.242;8.648;2022-09-09T09:10:19;96176.44;;;24.70;57.70
54994;BME280;40891;47.242;8.648;2022-09-09T09:12:46;96168.06;;;23.91;53.77
54994;BME280;40891;47.242;8.648;2022-09-09T09:15:26;96163.16;;;23.65;56.15
54994;BME280;40891;47.242;8.648;2022-09-09T09:17:55;96155.69;;;23.36;64.18
54994;BME280;40891;47.242;8.648;2022-09-09T09:20:29;96163.47;;;23.75;63.25
54994;BME280;40891;47.242;8.648;2022-09-09T09:23:02;96171.84;;;24.67;60.86
54994;BME280;40891;47.242;8.648;2022-09-09T09:25:34;96160.13;;;25.45;57.76
54994;BME280;40891;47.242;8.648;2022-09-09T09:28:07;96165.19;;;25.67;53.81
54994;BME280;40891;47.242;8.648;2022-09-09T09:30:39;96161.75;;;25.90;52.91
54994;BME280;40891;47.242;8.648;2022-09-09T09:35:54;96154.78;;;26.85;52.47
54994;BME280;40891;47.242;8.648;2022-09-09T09:38:22;96163.75;;;27.27;51.40
54994;BME280;40891;47.242;8.648;2022-09-09T09:40:53;96159.38;;;27.71;47.69
54994;BME280;40891;47.242;8.648;2022-09-09T09:43:36;96162.00;;;28.14;46.30
54994;BME280;40891;47.242;8.648;2022-09-09T09:46:05;96160.34;;;27.74;46.35
54994;BME280;40891;47.242;8.648;2022-09-09T09:48:31;96160.50;;;27.76;47.07
54994;BME280;40891;47.242;8.648;2022-09-09T09:53:32;96144.69;;;29.66;44.42
54994;BME280;40891;47.242;8.648;2022-09-09T09:56:01;96149.13;;;31.50;39.19
54994;BME280;40891;47.242;8.648;2022-09-09T09:58:30;96150.50;;;31.49;38.76
54994;BME280;40891;47.242;8.648;2022-09-09T10:00:57;96148.44;;;31.06;39.22
54994;BME280;40891;47.242;8.648;2022-09-09T10:03:31;96143.94;;;30.42;41.58
54994;BME280;40891;47.242;8.648;2022-09-09T10:05:57;96162.69;;;28.77;45.66
54994;BME280;40891;47.242;8.648;2022-09-09T10:08:27;96194.88;;;26.79;52.78
54994;BME280;40891;47.242;8.648;2022-09-09T10:10:57;96186.97;;;24.95;60.82
54994;BME280;40891;47.242;8.648;2022-09-09T10:19:30;96231.97;;;19.68;75.06
54994;BME280;40891;47.242;8.648;2022-09-09T10:22:24;96244.06;;;19.30;79.23
54994;BME280;40891;47.242;8.648;2022-09-09T10:28:23;96240.34;;;18.35;83.17
54994;BME280;40891;47.242;8.648;2022-09-09T10:33:13;96231.50;;;17.89;86.46
54994;BME280;40891;47.242;8.648;2022-09-09T10:38:41;96237.84;;;17.78;85.75
54994;BME280;40891;47.242;8.648;2022-09-09T10:47:27;96210.50;;;17.79;76.49
54994;BME280;40891;47.242;8.648;2022-09-09T10:53:00;96216.47;;;18.08;73.38
54994;BME280;40891;47.242;8.648;2022-09-09T10:55:35;96187.56;;;19.74;69.60
54994;BME280;40891;47.242;8.648;2022-09-09T10:58:03;96192.03;;;22.74;57.80
54994;BME280;40891;47.242;8.648;2022-09-09T11:00:44;96173.28;;;25.35;47.57
54994;BME280;40891;47.242;8.648;2022-09-09T11:03:23;96172.44;;;26.83;45.78
54994;BME280;40891;47.242;8.648;2022-09-09T11:05:54;96165.00;;;28.31;41.08
54994;BME280;40891;47.242;8.648;2022-09-09T11:08:23;96157.34;;;29.63;39.28
54994;BME280;40891;47.242;8.648;2022-09-09T11:13:30;96152.78;;;32.54;33.98
54994;BME280;40891;47.242;8.648;2022-09-09T11:16:05;96153.97;;;32.89;29.99
54994;BME280;40891;47.242;8.648;2022-09-09T11:18:39;96160.88;;;31.90;31.30
54994;BME280;40891;47.242;8.648;2022-09-09T11:21:14;96151.72;;;32.11;33.10
54994;BME280;40891;47.242;8.648;2022-09-09T11:23:46;96154.69;;;31.94;34.54
54994;BME280;40891;47.242;8.648;2022-09-09T11:26:25;96140.53;;;33.22;30.20
54994;BME280;40891;47.242;8.648;2022-09-09T11:37:27;96140.16;;;32.87;30.72
54994;BME280;40891;47.242;8.648;2022-09-09T11:42:39;96136.44;;;33.66;31.90
54994;BME280;40891;47.242;8.648;2022-09-09T11:45:21;96134.13;;;33.74;30.59
54994;BME280;40891;47.242;8.648;2022-09-09T11:47:56;96129.84;;;33.75;30.82
54994;BME280;40891;47.242;8.648;2022-09-09T11:52:50;96117.41;;;35.57;27.32
54994;BME280;40891;47.242;8.648;2022-09-09T11:55:29;96123.66;;;36.60;28.25
54994;BME280;40891;47.242;8.648;2022-09-09T11:58:15;96127.50;;;35.56;26.82
54994;BME280;40891;47.242;8.648;2022-09-09T12:03:49;96131.66;;;36.36;27.83
54994;BME280;40891;47.242;8.648;2022-09-09T12:08:45;96135.94;;;32.02;33.72
54994;BME280;40891;47.242;8.648;2022-09-09T12:11:23;96138.13;;;29.98;36.15
54994;BME280;40891;47.242;8.648;2022-09-09T12:13:57;96129.25;;;30.38;36.76
54994;BME280;40891;47.242;8.648;2022-09-09T12:16:34;96128.91;;;33.01;32.19
54994;BME280;40891;47.242;8.648;2022-09-09T12:19:21;96123.97;;;34.15;31.29
54994;BME280;40891;47.242;8.648;2022-09-09T12:21:54;96111.47;;;35.43;30.17
54994;BME280;40891;47.242;8.648;2022-09-09T12:27:02;96105.94;;;35.94;27.57
54994;BME280;40891;47.242;8.648;2022-09-09T12:29:43;96109.09;;;34.51;31.11
54994;BME280;40891;47.242;8.648;2022-09-09T12:32:16;96118.94;;;31.78;36.93
54994;BME280;40891;47.242;8.648;2022-09-09T12:34:52;96119.00;;;29.76;40.23
54994;BME280;40891;47.242;8.648;2022-09-09T12:37:38;96116.81;;;28.60;43.55
54994;BME280;40891;47.242;8.648;2022-09-09T12:40:17;96131.97;;;27.53;44.87
54994;BME280;40891;47.242;8.648;2022-09-09T12:42:44;96134.44;;;27.34;46.55
54994;BME280;40891;47.242;8.648;2022-09-09T12:45:35;96129.59;;;26.68;45.45
54994;BME280;40891;47.242;8.648;2022-09-09T12:48:08;96104.59;;;29.41;41.12
54994;BME280;40891;47.242;8.648;2022-09-09T12:50:43;96097.63;;;32.48;36.13
54994;BME280;40891;47.242;8.648;2022-09-09T12:53:11;96097.25;;;35.24;31.69
54994;BME280;40891;47.242;8.648;2022-09-09T12:55:52;96088.63;;;37.59;26.49
54994;BME280;40891;47.242;8.648;2022-09-09T12:58:19;96098.94;;;34.83;29.52
54994;BME280;40891;47.242;8.648;2022-09-09T13:00:53;96105.13;;;31.67;36.84
54994;BME280;40891;47.242;8.648;2022-09-09T13:03:21;96092.63;;;33.58;33.08
54994;BME280;40891;47.242;8.648;2022-09-09T13:05:47;96109.22;;;31.27;35.09
54994;BME280;40891;47.242;8.648;2022-09-09T13:08:14;96094.59;;;32.46;33.34
54994;BME280;40891;47.242;8.648;2022-09-09T13:10:44;96096.84;;;30.98;35.29
54994;BME280;40891;47.242;8.648;2022-09-09T13:13:14;96087.69;;;31.55;35.26
54994;BME280;40891;47.242;8.648;2022-09-09T13:15:49;96072.59;;;33.19;34.42
54994;BME280;40891;47.242;8.648;2022-09-09T13:18:15;96070.22;;;33.68;31.42
54994;BME280;40891;47.242;8.648;2022-09-09T13:20:48;96067.00;;;34.48;30.29
54994;BME280;40891;47.242;8.648;2022-09-09T13:23:14;96074.56;;;32.67;33.16
54994;BME280;40891;47.242;8.648;2022-09-09T13:25:53;96082.25;;;30.60;36.10
54994;BME280;40891;47.242;8.648;2022-09-09T13:28:22;96085.88;;;28.59;40.46
54994;BME280;40891;47.242;8.648;2022-09-09T13:30:59;96096.50;;;27.71;42.73
54994;BME280;40891;47.242;8.648;2022-09-09T13:33:30;96078.06;;;28.27;42.65
54994;BME280;40891;47.242;8.648;2022-09-09T13:36:01;96071.06;;;29.51;39.44
54994;BME280;40891;47.242;8.648;2022-09-09T13:38:58;96059.78;;;29.53;38.25
54994;BME280;40891;47.242;8.648;2022-09-09T13:41:24;96070.25;;;27.65;42.63
54994;BME280;40891;47.242;8.648;2022-09-09T13:43:51;96080.06;;;26.43;45.56
54994;BME280;40891;47.242;8.648;2022-09-09T13:51:45;96079.06;;;24.22;52.46
54994;BME280;40891;47.242;8.648;2022-09-09T13:54:13;96081.09;;;23.88;55.04
54994;BME280;40891;47.242;8.648;2022-09-09T13:56:40;96078.50;;;23.77;53.72
54994;BME280;40891;47.242;8.648;2022-09-09T13:59:11;96080.09;;;23.99;54.09
54994;BME280;40891;47.242;8.648;2022-09-09T14:01:37;96074.75;;;25.04;51.18
54994;BME280;40891;47.242;8.648;2022-09-09T14:04:03;96072.88;;;25.99;48.06
54994;BME280;40891;47.242;8.648;2022-09-09T14:06:29;96068.47;;;26.33;47.43
54994;BME280;40891;47.242;8.648;2022-09-09T14:08:54;96062.00;;;28.31;45.25
54994;BME280;40891;47.242;8.648;2022-09-09T14:11:20;96057.47;;;28.21;43.84
54994;BME280;40891;47.242;8.648;2022-09-09T14:13:47;96056.78;;;28.45;42.40
54994;BME280;40891;47.242;8.648;2022-09-09T14:16:12;96052.31;;;28.27;41.99
54994;BME280;40891;47.242;8.648;2022-09-09T14:18:38;96044.28;;;28.25;42.15
54994;BME280;40891;47.242;8.648;2022-09-09T14:21:04;96052.97;;;27.10;44.42
54994;BME280;40891;47.242;8.648;2022-09-09T14:23:29;96057.66;;;26.47;46.30
54994;BME280;40891;47.242;8.648;2022-09-09T14:25:55;96046.69;;;26.00;47.99
54994;BME280;40891;47.242;8.648;2022-09-09T14:28:21;96054.75;;;25.17;46.47
54994;BME280;40891;47.242;8.648;2022-09-09T14:30:47;96059.97;;;24.64;47.18
54994;BME280;40891;47.242;8.648;2022-09-09T14:33:14;96054.31;;;24.10;48.73
54994;BME280;40891;47.242;8.648;2022-09-09T14:35:40;96054.91;;;24.16;49.86
54994;BME280;40891;47.242;8.648;2022-09-09T14:38:06;96065.91;;;23.99;49.94
54994;BME280;40891;47.242;8.648;2022-09-09T14:40:34;96057.22;;;24.17;50.19
54994;BME280;40891;47.242;8.648;2022-09-09T14:43:00;96052.31;;;25.49;47.84
54994;BME280;40891;47.242;8.648;2022-09-09T14:45:25;96038.13;;;27.12;41.49
54994;BME280;40891;47.242;8.648;2022-09-09T14:47:51;96032.91;;;27.63;40.38
54994;BME280;40891;47.242;8.648;2022-09-09T14:50:18;96049.72;;;27.36;42.78
54994;BME280;40891;47.242;8.648;2022-09-09T14:52:43;96043.97;;;27.59;41.27
54994;BME280;40891;47.242;8.648;2022-09-09T14:55:09;96047.06;;;27.16;41.99
54994;BME280;40891;47.242;8.648;2022-09-09T14:57:34;96054.09;;;26.62;42.31
54994;BME280;40891;47.242;8.648;2022-09-09T15:00:02;96041.66;;;28.52;39.74
54994;BME280;40891;47.242;8.648;2022-09-09T15:02:27;96043.47;;;28.00;38.66
54994;BME280;40891;47.242;8.648;2022-09-09T15:04:55;96056.03;;;26.82;37.29